Kaami — C6VO9 — position and weather

sailwx.info

Track history (hours):
 
Tides and Currents Weather Stations Pressure Air Temp Water Temp Dewpoint Dewpoint Depression Visibility Wind Speed Wind Dir Waves Ship Positions

Kaami

Last reported at 2016-Sep-30 10:31 UTC. Time now 2016-Sep-30 13:34 UTC.
Position N 55°27' E 012°12'.

Length 90 m; draft 3.6 m.

Type: Cargo ship. MMSI: 308542000.

Date/timePositionNaut miles runAvg speedWind from/ knotsBaromVisibWave heightAir tempDewpointWater temp
2016-Sep-30 10:31N 55°27' E 012°12'0 0.0
2016-Sep-30 08:31N 55°27' E 012°12'9 4.5
2016-Sep-30 06:33N 55°29' E 012°27'21 7.1
2016-Sep-30 03:33N 55°48' E 012°41'9 8.6
2016-Sep-30 02:33N 55°57' E 012°38'23 7.6
2016-Sep-29 23:30N 56°14' E 012°11'63 6.3
2016-Sep-29 13:31N 57°14' E 011°31'37 7.5
2016-Sep-29 08:34N 57°43' E 010°50'8 8.1
2016-Sep-29 07:33N 57°47' E 010°36'118 7.9
2016-Sep-28 16:33N 57°54' E 006°54'7 7.0
2016-Sep-28 15:34N 57°57' E 006°43'20 6.7
2016-Sep-28 12:33N 58°09' E 006°12'26 6.4
2016-Sep-28 08:30N 58°26' E 005°35'25 5.0
2016-Sep-28 03:33N 58°50' E 005°18'3 3.5
2016-Sep-28 02:33N 58°53' E 005°17'3 3.2
2016-Sep-28 01:33N 58°56' E 005°18'7 3.6
2016-Sep-27 23:33N 59°03' E 005°19'23 5.6
2016-Sep-27 19:32N 59°26' E 005°14'31 0.8
2016-Sep-26 02:32N 58°58' E 004°45'1010.3
2016-Sep-26 01:34N 58°48' E 004°47'1010.1
2016-Sep-26 00:34N 58°38' E 004°48'257 8.5
2016-Sep-24 18:19N 54°21' E 005°06'7 8.8
2016-Sep-24 17:33N 54°14' E 005°07'9 8.7
2016-Sep-24 16:33N 54°06' E 005°07'18 8.8
2016-Sep-24 14:34N 53°49' E 004°57'50 9.7
2016-Sep-24 09:23N 53°03' E 004°24'53 9.1
2016-Sep-24 03:33N 52°13' E 003°53'9 8.6
2016-Sep-24 02:34N 52°04' E 003°55'9 9.3
2016-Sep-24 01:33N 51°59' E 004°07'8 8.1
2016-Sep-24 00:34N 51°53' E 004°17'0 0.0
2016-Sep-23 19:32N 51°53' E 004°17'0 0.0
2016-Sep-23 17:32N 51°53' E 004°17'0 0.0
2016-Sep-23 16:31N 51°53' E 004°17'0 0.0
2016-Sep-23 15:28N 51°53' E 004°17'0 0.0
2016-Sep-23 13:31N 51°53' E 004°17'0 0.0
2016-Sep-23 09:32N 51°53' E 004°17'4 1.5
2016-Sep-23 06:34N 51°56' E 004°11'17 8.5
2016-Sep-23 04:33N 52°04' E 003°47'10 8.3
2016-Sep-23 03:25N 52°14' E 003°46'25 8.8
2016-Sep-23 00:33N 52°39' E 003°54'10 8.8
2016-Sep-22 23:26N 52°48' E 003°58'82 7.3
2016-Sep-22 12:12N 54°02' E 004°57'340 8.0
2016-Sep-20 17:28N 59°06' E 009°37'  
Track history (hours):
 
Tides and Currents Weather Stations Pressure Air Temp Water Temp Dewpoint Dewpoint Depression Visibility Wind Speed Wind Dir Waves Ship Positions

Kaami

Last reported at 2016-Sep-30 10:31 UTC. Time now 2016-Sep-30 13:34 UTC.
Position N 55°27' E 012°12'.

Length 90 m; draft 3.6 m.

Type: Cargo ship. MMSI: 308542000.

Date/timePositionNaut miles runAvg speedWind from/ knotsBaromVisibWave heightAir tempDewpointWater temp
2016-Sep-30 10:31N 55°27' E 012°12'0 0.0
2016-Sep-30 08:31N 55°27' E 012°12'9 4.5
2016-Sep-30 06:33N 55°29' E 012°27'21 7.1
2016-Sep-30 03:33N 55°48' E 012°41'9 8.6
2016-Sep-30 02:33N 55°57' E 012°38'23 7.6
2016-Sep-29 23:30N 56°14' E 012°11'63 6.3
2016-Sep-29 13:31N 57°14' E 011°31'37 7.5
2016-Sep-29 08:34N 57°43' E 010°50'8 8.1
2016-Sep-29 07:33N 57°47' E 010°36'118 7.9
2016-Sep-28 16:33N 57°54' E 006°54'7 7.0
2016-Sep-28 15:34N 57°57' E 006°43'20 6.7
2016-Sep-28 12:33N 58°09' E 006°12'26 6.4
2016-Sep-28 08:30N 58°26' E 005°35'25 5.0
2016-Sep-28 03:33N 58°50' E 005°18'3 3.5
2016-Sep-28 02:33N 58°53' E 005°17'3 3.2
2016-Sep-28 01:33N 58°56' E 005°18'7 3.6
2016-Sep-27 23:33N 59°03' E 005°19'23 5.6
2016-Sep-27 19:32N 59°26' E 005°14'31 0.8
2016-Sep-26 02:32N 58°58' E 004°45'1010.3
2016-Sep-26 01:34N 58°48' E 004°47'1010.1
2016-Sep-26 00:34N 58°38' E 004°48'257 8.5
2016-Sep-24 18:19N 54°21' E 005°06'7 8.8
2016-Sep-24 17:33N 54°14' E 005°07'9 8.7
2016-Sep-24 16:33N 54°06' E 005°07'18 8.8
2016-Sep-24 14:34N 53°49' E 004°57'50 9.7
2016-Sep-24 09:23N 53°03' E 004°24'53 9.1
2016-Sep-24 03:33N 52°13' E 003°53'9 8.6
2016-Sep-24 02:34N 52°04' E 003°55'9 9.3
2016-Sep-24 01:33N 51°59' E 004°07'8 8.1
2016-Sep-24 00:34N 51°53' E 004°17'0 0.0
2016-Sep-23 19:32N 51°53' E 004°17'0 0.0
2016-Sep-23 17:32N 51°53' E 004°17'0 0.0
2016-Sep-23 16:31N 51°53' E 004°17'0 0.0
2016-Sep-23 15:28N 51°53' E 004°17'0 0.0
2016-Sep-23 13:31N 51°53' E 004°17'0 0.0
2016-Sep-23 09:32N 51°53' E 004°17'4 1.5
2016-Sep-23 06:34N 51°56' E 004°11'17 8.5
2016-Sep-23 04:33N 52°04' E 003°47'10 8.3
2016-Sep-23 03:25N 52°14' E 003°46'25 8.8
2016-Sep-23 00:33N 52°39' E 003°54'10 8.8
2016-Sep-22 23:26N 52°48' E 003°58'82 7.3
2016-Sep-22 12:12N 54°02' E 004°57'340 8.0
2016-Sep-20 17:28N 59°06' E 009°37'  

Dump ship's entire track history